»·PEaware :: UAL256 KDEN-KSFO

UAL256 :: KDEN-KSFO

FLIGHT INFORMATION

Flight Status: Arrived
Operator:
United Airlines
More flights by this operator :: More flights under this callsign
Pilot: Drew L. (13237)
Aircraft: AIRBUS A320
(A320)
More flights by this aircraft type
Origin: KDEN Denver Intl
United States
Destination: KSFO San Francisco Intl
United States
More flights between these airports :: More routes between these airports
Route: COORZ3 VOAXA Q136 OAL INYOE DYAMD3
File this flight plan on PilotEdge
Remarks: PBN / A1B1C1D1O1S1 DOF / 180114 REG / N320SB EET / KZLC0044 KZOA0135 OPR / UAL PER / C RMK / TCAS SIMBRIEF
Altitude:
(Current/Filed)
32,000ft
Speed:
(Current/Filed)
434kts
Departed: 13-Jan-18 05:36 PM
Arrived: 13-Jan-18 07:48 PM
Distance/Time
Traveled:
839nm/2:11
Distance/Time
To Go:
Arrived

Flight Plot

Page will automatically refresh every two minutes.

Flight plan parsing failed; only flown route is shown


Map Options




Map Legend


Flown Route
Filed Route
Departure Airport
Arrival Airport
Navaid (VOR, NDB)
Fix

Horizontal Profiles

Position Reports

Time Latitude Longitude Heading Altitude Ground
Speed
13-Jan-18 17:12 39.858116 -104.667766 4 5440ft 0kts
13-Jan-18 17:13 39.858116 -104.667766 4 5440ft 0kts
13-Jan-18 17:14 39.858116 -104.667766 4 5440ft 0kts
13-Jan-18 17:15 39.858116 -104.667766 4 5440ft 0kts
13-Jan-18 17:16 39.858116 -104.667766 4 5440ft 0kts
13-Jan-18 17:17 39.858116 -104.667766 4 5440ft 0kts
13-Jan-18 17:18 39.858116 -104.667766 4 5440ft 0kts
13-Jan-18 17:19 39.858116 -104.667766 4 5440ft 0kts
13-Jan-18 17:20 39.858116 -104.667766 4 5440ft 0kts
13-Jan-18 17:21 39.858116 -104.667766 4 5440ft 0kts
13-Jan-18 17:22 39.858116 -104.667766 4 5440ft 0kts
13-Jan-18 17:23 39.858116 -104.667766 4 5440ft 0kts
13-Jan-18 17:24 39.858116 -104.667766 4 5440ft 0kts
13-Jan-18 17:25 39.858116 -104.667766 4 5440ft 0kts
13-Jan-18 17:26 39.858115 -104.667766 4 5440ft 0kts
13-Jan-18 17:27 39.858115 -104.667766 4 5440ft 0kts
13-Jan-18 17:28 39.858115 -104.667766 4 5440ft 0kts
13-Jan-18 17:29 39.857857 -104.667815 7 5440ft 2kts
13-Jan-18 17:30 39.857262 -104.667865 358 5440ft 2kts
13-Jan-18 17:31 39.856699 -104.667674 313 5440ft 2kts
13-Jan-18 17:32 39.856561 -104.667083 268 5440ft 0kts
13-Jan-18 17:33 39.856561 -104.667084 268 5440ft 0kts
13-Jan-18 17:34 39.856561 -104.667084 268 5440ft 0kts
13-Jan-18 17:35 39.856555 -104.667607 268 5440ft 4kts
13-Jan-18 17:36 39.856578 -104.667141 92 5440ft 11kts
13-Jan-18 17:37 39.856572 -104.666452 89 5440ft 0kts
13-Jan-18 17:38 39.856571 -104.666297 90 5440ft 0kts
13-Jan-18 17:39 39.859265 -104.662293 0 5440ft 24kts
13-Jan-18 17:40 39.860968 -104.661810 80 5440ft 0kts
13-Jan-18 17:41 39.860660 -104.660202 169 5440ft 16kts
13-Jan-18 17:42 39.824439 -104.661489 193 6373ft 205kts
13-Jan-18 17:43 39.807266 -104.726518 276 8676ft 239kts
13-Jan-18 17:44 39.811628 -104.822892 278 10304ft 276kts
13-Jan-18 17:45 39.827749 -104.929765 280 11565ft 333kts
13-Jan-18 17:46 39.846828 -105.053466 285 13585ft 357kts
13-Jan-18 17:47 39.874003 -105.179037 285 15865ft 364kts
13-Jan-18 17:48 39.901319 -105.306301 283 17921ft 368kts
13-Jan-18 17:49 39.894027 -105.439744 264 19687ft 377kts
13-Jan-18 17:50 39.878183 -105.575914 265 21281ft 383kts
13-Jan-18 17:51 39.861276 -105.713432 265 22698ft 389kts
13-Jan-18 17:52 39.848975 -105.854205 267 24024ft 395kts
13-Jan-18 17:53 39.837164 -105.990241 268 25165ft 400kts
13-Jan-18 17:54 39.824479 -106.134338 268 26247ft 406kts
13-Jan-18 17:55 39.811434 -106.280428 268 27223ft 411kts
13-Jan-18 17:56 39.798124 -106.427166 269 28462ft 407kts
13-Jan-18 17:57 39.784911 -106.573142 270 29647ft 404kts
13-Jan-18 17:58 39.770749 -106.717287 268 30760ft 404kts
13-Jan-18 17:59 39.754788 -106.860345 269 31793ft 404kts
13-Jan-18 18:00 39.738549 -107.005669 269 32484ft 409kts
13-Jan-18 18:01 39.722079 -107.151260 269 32502ft 409kts
13-Jan-18 18:02 39.705360 -107.297433 269 32502ft 409kts
13-Jan-18 18:03 39.689541 -107.434264 269 32499ft 409kts
13-Jan-18 18:04 39.672489 -107.580130 269 32498ft 409kts
13-Jan-18 18:05 39.655343 -107.725202 268 32497ft 410kts
13-Jan-18 18:06 39.637942 -107.870787 268 32510ft 411kts
13-Jan-18 18:07 39.620305 -108.016735 268 32511ft 411kts
13-Jan-18 18:08 39.602467 -108.162759 268 32496ft 410kts
13-Jan-18 18:09 39.584482 -108.308441 268 32492ft 410kts
13-Jan-18 18:10 39.566298 -108.454168 268 32516ft 409kts
13-Jan-18 18:11 39.547963 -108.599575 268 32507ft 409kts
13-Jan-18 18:12 39.529785 -108.742307 267 32501ft 409kts
13-Jan-18 18:13 39.511103 -108.887472 267 32515ft 410kts
13-Jan-18 18:14 39.492183 -109.033003 267 32507ft 411kts
13-Jan-18 18:15 39.472985 -109.179267 266 32469ft 415kts
13-Jan-18 18:16 39.453317 -109.327560 266 32480ft 420kts
13-Jan-18 18:17 39.433386 -109.476223 266 32500ft 422kts
13-Jan-18 18:18 39.413113 -109.625937 266 32501ft 422kts
13-Jan-18 18:19 39.402178 -109.706108 266 32490ft 422kts
13-Jan-18 18:20 39.381977 -109.853084 266 32479ft 422kts
13-Jan-18 18:21 39.361461 -110.001426 266 32479ft 421kts
13-Jan-18 18:22 39.341368 -110.150564 266 32484ft 421kts
13-Jan-18 18:23 39.324641 -110.274254 266 32483ft 421kts
13-Jan-18 18:24 39.300968 -110.447702 266 32487ft 421kts
13-Jan-18 18:25 39.280547 -110.595729 266 32494ft 420kts
13-Jan-18 18:26 39.263346 -110.719329 266 32488ft 421kts
13-Jan-18 18:27 39.239261 -110.890741 265 32496ft 421kts
13-Jan-18 18:28 39.221695 -111.014574 265 32485ft 422kts
13-Jan-18 18:29 39.200329 -111.163886 264 32472ft 425kts
13-Jan-18 18:30 39.178701 -111.313578 264 32501ft 426kts
13-Jan-18 18:31 39.156871 -111.463226 264 32538ft 427kts
13-Jan-18 18:32 39.134755 -111.613432 264 32570ft 426kts
13-Jan-18 18:33 39.112560 -111.762761 263 32553ft 426kts
13-Jan-18 18:34 39.090202 -111.912079 263 32550ft 426kts
13-Jan-18 18:35 39.067574 -112.061716 263 32548ft 426kts
13-Jan-18 18:36 39.044722 -112.211067 263 32546ft 426kts
13-Jan-18 18:37 39.021766 -112.360008 263 32541ft 426kts
13-Jan-18 18:38 38.998520 -112.509545 263 32538ft 427kts
13-Jan-18 18:39 38.975238 -112.657995 262 32537ft 428kts
13-Jan-18 18:40 38.951539 -112.807798 262 32533ft 430kts
13-Jan-18 18:41 38.927524 -112.958261 260 32523ft 431kts
13-Jan-18 18:42 38.903232 -113.109143 259 32507ft 433kts
13-Jan-18 18:43 38.880272 -113.250568 259 32518ft 434kts
13-Jan-18 18:44 38.855499 -113.401882 259 32525ft 434kts
13-Jan-18 18:45 38.830507 -113.553239 259 32520ft 434kts
13-Jan-18 18:46 38.805592 -113.702867 259 32515ft 434kts
13-Jan-18 18:47 38.780193 -113.854137 259 32519ft 434kts
13-Jan-18 18:48 38.754871 -114.003689 259 32523ft 434kts
13-Jan-18 18:49 38.729087 -114.154722 259 32522ft 434kts
13-Jan-18 18:50 38.703108 -114.305656 259 32522ft 434kts
13-Jan-18 18:51 38.676988 -114.456171 259 32522ft 434kts
13-Jan-18 18:52 38.650620 -114.606890 259 32522ft 434kts
13-Jan-18 18:53 38.624261 -114.756361 258 32523ft 435kts
13-Jan-18 18:54 38.597441 -114.907234 258 32526ft 435kts
13-Jan-18 18:55 38.570541 -115.057352 258 32524ft 435kts
13-Jan-18 18:56 38.543395 -115.207685 258 32516ft 436kts
13-Jan-18 18:57 38.515935 -115.358560 258 32523ft 436kts
13-Jan-18 18:58 38.488345 -115.508969 258 32529ft 436kts
13-Jan-18 18:59 38.460754 -115.658231 258 32529ft 436kts
13-Jan-18 19:00 38.432708 -115.808809 258 32513ft 437kts
13-Jan-18 19:01 38.404506 -115.959064 258 32497ft 437kts
13-Jan-18 19:02 38.376085 -116.109351 258 32498ft 437kts
13-Jan-18 19:03 38.347451 -116.259639 258 32497ft 437kts
13-Jan-18 19:04 38.316293 -116.409454 256 32496ft 437kts
13-Jan-18 19:05 38.282909 -116.557880 256 32495ft 437kts
13-Jan-18 19:06 38.249473 -116.705540 255 32495ft 437kts
13-Jan-18 19:07 38.215673 -116.853831 255 32498ft 437kts
13-Jan-18 19:08 38.181679 -117.002011 255 32496ft 438kts
13-Jan-18 19:09 38.147524 -117.149969 255 32492ft 438kts
13-Jan-18 19:10 38.113072 -117.298422 255 32477ft 440kts
13-Jan-18 19:11 38.078569 -117.447892 255 32489ft 442kts
13-Jan-18 19:12 38.044115 -117.596048 255 32515ft 443kts
13-Jan-18 19:13 38.011099 -117.737123 254 32498ft 443kts
13-Jan-18 19:14 37.990778 -117.890531 263 32472ft 442kts
13-Jan-18 19:15 37.974469 -118.044629 263 32454ft 441kts
13-Jan-18 19:16 37.958020 -118.198364 263 32437ft 441kts
13-Jan-18 19:17 37.941422 -118.351630 263 32435ft 441kts
13-Jan-18 19:18 37.924586 -118.505191 263 32510ft 441kts
13-Jan-18 19:19 37.908117 -118.653611 262 32545ft 441kts
13-Jan-18 19:20 37.891443 -118.802080 263 32545ft 441kts
13-Jan-18 19:21 37.876815 -118.930862 262 32559ft 439kts
13-Jan-18 19:22 37.859419 -119.082357 262 32573ft 435kts
13-Jan-18 19:23 37.841909 -119.233356 262 32528ft 433kts
13-Jan-18 19:24 37.824300 -119.383434 262 32513ft 432kts
13-Jan-18 19:25 37.806506 -119.533351 262 32521ft 433kts
13-Jan-18 19:26 37.788693 -119.681762 261 32363ft 433kts
13-Jan-18 19:27 37.772663 -119.813934 261 32306ft 434kts
13-Jan-18 19:28 37.754407 -119.962960 261 32338ft 434kts
13-Jan-18 19:29 37.735730 -120.113731 261 32269ft 435kts
13-Jan-18 19:30 37.717040 -120.262988 260 30023ft 433kts
13-Jan-18 19:31 37.697922 -120.414317 260 26674ft 448kts
13-Jan-18 19:32 37.679860 -120.570241 260 23955ft 437kts
13-Jan-18 19:33 37.663232 -120.711014 260 22948ft 393kts
13-Jan-18 19:34 37.652586 -120.800336 260 21745ft 381kts
13-Jan-18 19:35 37.637572 -120.924984 260 19810ft 371kts
13-Jan-18 19:36 37.621680 -121.047983 259 17962ft 359kts
13-Jan-18 19:37 37.605368 -121.169392 259 16113ft 349kts
13-Jan-18 19:38 37.589787 -121.286241 262 14320ft 340kts
13-Jan-18 19:39 37.576647 -121.402191 262 12531ft 331kts
13-Jan-18 19:40 37.563663 -121.514514 262 10786ft 322kts
13-Jan-18 19:41 37.551361 -121.618938 259 10005ft 287kts
13-Jan-18 19:42 37.529284 -121.714853 253 8492ft 284kts
13-Jan-18 19:43 37.507797 -121.804523 253 8029ft 247kts
13-Jan-18 19:44 37.489531 -121.880422 252 8021ft 208kts
13-Jan-18 19:45 37.471241 -121.949416 252 7055ft 208kts
13-Jan-18 19:46 37.467853 -122.016655 301 5399ft 201kts
13-Jan-18 19:47 37.492898 -122.074157 299 4853ft 183kts
13-Jan-18 19:48 37.515960 -122.129748 300 4056ft 172kts
13-Jan-18 19:49 37.537663 -122.181611 300 3096ft 160kts
13-Jan-18 19:50 37.556947 -122.227696 301 2299ft 144kts
13-Jan-18 19:51 37.575558 -122.272151 300 1545ft 144kts
13-Jan-18 19:52 37.594068 -122.316320 300 790ft 143kts
13-Jan-18 19:53 37.612598 -122.360422 299 38ft 142kts
13-Jan-18 19:54 37.621661 -122.382850 238 22ft 14kts
13-Jan-18 19:55 37.621025 -122.383313 194 22ft 1kts
13-Jan-18 19:56 37.621711 -122.386973 279 22ft 5kts
13-Jan-18 19:57 37.620702 -122.387782 197 22ft 0kts
13-Jan-18 19:58 37.620702 -122.387782 197 22ft 0kts
13-Jan-18 19:59 37.620702 -122.387782 197 22ft 0kts
13-Jan-18 20:00 37.620702 -122.387782 197 22ft 0kts
13-Jan-18 20:01 37.620702 -122.387782 197 22ft 0kts

Navigation Log

Ident Type
Flight plan parsing failed, navigation log unavailable